Terminal Aerodrome Forecast
Issued by NWS

Home | Current Version | Previous Version | Graphics & Text | Print | Product List | Glossary On
Versions: 1 2 3 4 5 6 7 8 9 10 11 12 13 14 15 16 17 18 19 20 21 22 23 24
771
FTUS43 KICT 200049 AAA
TAFHUT
TAF AMD
KHUT 200049Z 2001/2024 11005KT P6SM OVC005
     FM200400 10004KT 3SM -DZ BR OVC003
     FM200900 VRB03KT 1/4SM -DZ FG OVC003
     FM201500 11004KT 1SM BR OVC003
     FM201800 16007KT P6SM OVC008
     FM202300 19009KT P6SM BKN025=

USA.gov is the U.S. government's official web portal to all federal, state and local government web resources and services.